Time;durP1;ratioP1;P1;durP2;ratioP2;P2;SDS_P1;SDS_P2;PMS_P1;PMS_P2;Temp;Humidity;BMP_temperature;BMP_pressure;BME280_temperature;BME280_humidity;BME280_pressure;Samples;Min_cycle;Max_cycle;Signal;HPM_P1;HPM_P2
2024/02/27 00:00:19;;;;;;;4.80;3.80;;;7.30;92.20;;;;;;5041319;28;20454;-59
2024/02/27 00:02:45;;;;;;;7.07;3.60;;;7.30;91.60;;;;;;5044027;28;20202;-60
2024/02/27 00:05:10;;;;;;;3.93;3.37;;;7.30;90.40;;;;;;5042022;28;20598;-59
2024/02/27 00:07:36;;;;;;;7.73;3.93;;;7.40;90.00;;;;;;5043307;28;20203;-59
2024/02/27 00:10:04;;;;;;;10.93;4.23;;;7.40;88.80;;;;;;5047918;28;20175;-59
2024/02/27 00:12:29;;;;;;;3.40;3.10;;;7.40;87.50;;;;;;5055810;28;20178;-59
2024/02/27 00:14:55;;;;;;;3.60;3.30;;;7.40;87.50;;;;;;5049074;28;20473;-60
2024/02/27 00:17:21;;;;;;;6.40;3.13;;;7.40;86.50;;;;;;5047156;28;20277;-59
2024/02/27 00:19:47;;;;;;;6.20;3.50;;;7.40;84.20;;;;;;5044176;28;20198;-59
2024/02/27 00:22:12;;;;;;;4.27;3.33;;;7.40;83.40;;;;;;5043320;28;20410;-59
2024/02/27 00:24:38;;;;;;;7.63;3.23;;;7.40;82.40;;;;;;5045805;28;20666;-59
2024/02/27 00:27:04;;;;;;;4.70;3.33;;;7.40;81.70;;;;;;5044993;28;20241;-60
2024/02/27 00:29:31;;;;;;;5.30;3.40;;;7.40;82.20;;;;;;5044000;28;20198;-60
2024/02/27 00:31:57;;;;;;;3.60;2.87;;;7.50;81.50;;;;;;5046289;28;20176;-59
2024/02/27 00:34:23;;;;;;;4.60;3.10;;;7.40;80.70;;;;;;5046963;28;20425;-60
2024/02/27 00:36:49;;;;;;;4.30;2.90;;;7.40;80.50;;;;;;5045261;28;21136;-59
2024/02/27 00:39:15;;;;;;;2.47;2.27;;;7.40;80.20;;;;;;5046497;28;20197;-59
2024/02/27 00:41:41;;;;;;;4.60;3.20;;;7.40;79.90;;;;;;5049344;28;20433;-59
2024/02/27 00:44:07;;;;;;;3.67;2.90;;;7.40;79.00;;;;;;5049020;28;20203;-59
2024/02/27 00:46:37;;;;;;;3.50;2.63;;;7.40;78.10;;;;;;5045317;28;20856;-59
2024/02/27 00:49:02;;;;;;;4.27;2.90;;;7.40;77.20;;;;;;5039093;28;20442;-59
2024/02/27 00:51:28;;;;;;;5.23;3.07;;;7.40;76.60;;;;;;5045976;28;20456;-60
2024/02/27 00:53:54;;;;;;;3.73;2.70;;;7.30;76.40;;;;;;5048331;28;20225;-59
2024/02/27 00:56:20;;;;;;;4.63;2.97;;;7.30;76.00;;;;;;5048412;28;20642;-60
2024/02/27 00:58:46;;;;;;;2.57;2.37;;;7.30;75.70;;;;;;5047012;28;20218;-59
2024/02/27 01:01:11;;;;;;;3.17;2.60;;;7.30;75.30;;;;;;5053361;28;20421;-59
2024/02/27 01:03:37;;;;;;;4.00;2.50;;;7.30;74.50;;;;;;5047401;28;20756;-59
2024/02/27 01:06:04;;;;;;;2.77;2.57;;;7.30;74.10;;;;;;5047304;28;20201;-61
2024/02/27 01:08:29;;;;;;;2.20;2.00;;;7.30;73.80;;;;;;5044262;28;20223;-59
2024/02/27 01:10:55;;;;;;;4.43;2.70;;;7.30;73.00;;;;;;5046865;28;20424;-59
2024/02/27 01:13:21;;;;;;;2.67;2.30;;;7.20;72.70;;;;;;5051131;28;20332;-59
2024/02/27 01:15:46;;;;;;;3.37;2.27;;;7.20;71.80;;;;;;5051220;28;20580;-60
2024/02/27 01:18:12;;;;;;;3.17;2.60;;;7.20;71.50;;;;;;5052662;28;20268;-60
2024/02/27 01:20:37;;;;;;;2.47;2.27;;;7.20;71.10;;;;;;5040067;28;20210;-60
2024/02/27 01:23:03;;;;;;;2.60;2.40;;;7.20;70.80;;;;;;5048808;28;20175;-59
2024/02/27 01:25:29;;;;;;;3.03;2.13;;;7.20;70.70;;;;;;5047197;28;20185;-60
2024/02/27 01:27:54;;;;;;;3.10;2.27;;;7.10;70.30;;;;;;5044431;28;20702;-59
2024/02/27 01:30:20;;;;;;;3.00;2.10;;;7.10;70.10;;;;;;5045045;28;20175;-60
2024/02/27 01:32:46;;;;;;;2.87;2.60;;;7.10;70.10;;;;;;5045756;28;20808;-58
2024/02/27 01:35:11;;;;;;;3.80;2.10;;;7.10;69.70;;;;;;5042976;28;20731;-60
2024/02/27 01:37:38;;;;;;;3.40;2.20;;;7.00;69.40;;;;;;5045483;28;20289;-59
2024/02/27 01:40:05;;;;;;;2.50;1.90;;;7.00;69.20;;;;;;5040403;28;20203;-60
2024/02/27 01:42:31;;;;;;;2.50;1.87;;;7.00;69.00;;;;;;5051332;28;20425;-60
2024/02/27 01:44:56;;;;;;;3.60;1.90;;;7.00;68.70;;;;;;5046328;28;20414;-60
2024/02/27 01:47:24;;;;;;;3.73;1.80;;;7.00;68.70;;;;;;5046384;28;20234;-61
2024/02/27 01:49:50;;;;;;;1.70;1.60;;;7.00;68.80;;;;;;5044518;28;20545;-61
2024/02/27 01:52:17;;;;;;;2.10;1.80;;;7.00;68.80;;;;;;5043499;28;20468;-59
2024/02/27 01:54:45;;;;;;;2.13;1.93;;;7.00;68.90;;;;;;5041219;28;20433;-59
2024/02/27 01:57:11;;;;;;;2.40;1.87;;;7.00;68.90;;;;;;5040302;28;20444;-59
2024/02/27 01:59:40;;;;;;;2.37;1.97;;;7.00;69.10;;;;;;5026756;28;20540;-59
2024/02/27 02:02:06;;;;;;;3.07;1.70;;;7.00;69.70;;;;;;5046910;28;20505;-59
2024/02/27 02:04:34;;;;;;;1.90;1.70;;;7.00;69.50;;;;;;5047246;28;20499;-60
2024/02/27 02:07:01;;;;;;;2.00;1.60;;;7.00;69.60;;;;;;5044622;28;20732;-59
2024/02/27 02:09:27;;;;;;;2.27;1.70;;;6.90;69.80;;;;;;5040943;28;20438;-60
2024/02/27 02:11:53;;;;;;;1.70;1.60;;;7.00;70.10;;;;;;5046829;28;20459;-61
2024/02/27 02:14:20;;;;;;;2.70;1.93;;;6.90;70.20;;;;;;5042864;28;20183;-60
2024/02/27 02:16:46;;;;;;;2.43;1.60;;;6.90;70.50;;;;;;5031120;28;20174;-60
2024/02/27 02:19:12;;;;;;;1.87;1.53;;;6.90;70.80;;;;;;5043452;28;20500;-60
2024/02/27 02:21:37;;;;;;;1.93;1.80;;;6.90;71.00;;;;;;5044556;28;20441;-59
2024/02/27 02:24:03;;;;;;;1.70;1.60;;;6.90;71.20;;;;;;5044735;28;20202;-59
2024/02/27 02:26:31;;;;;;;1.53;1.43;;;6.90;71.60;;;;;;5046760;28;20258;-58
2024/02/27 02:28:57;;;;;;;1.73;1.50;;;6.90;72.00;;;;;;5045569;28;20524;-59
2024/02/27 02:31:23;;;;;;;4.50;1.40;;;6.80;72.50;;;;;;5047285;28;20414;-60
2024/02/27 02:33:49;;;;;;;3.20;1.90;;;6.90;73.00;;;;;;5042069;28;21010;-60
2024/02/27 02:36:15;;;;;;;1.87;1.73;;;6.80;73.10;;;;;;5039103;28;20175;-59
2024/02/27 02:38:41;;;;;;;2.17;1.97;;;6.90;73.40;;;;;;5038693;28;20441;-59
2024/02/27 02:41:06;;;;;;;1.87;1.50;;;6.80;73.90;;;;;;5046571;28;20557;-60
2024/02/27 02:43:32;;;;;;;1.83;1.73;;;6.80;73.90;;;;;;5044707;28;20388;-59
2024/02/27 02:45:58;;;;;;;1.70;1.60;;;6.80;74.10;;;;;;5044542;28;20175;-59
2024/02/27 02:48:23;;;;;;;2.57;1.40;;;6.80;75.00;;;;;;5045178;28;20625;-58
2024/02/27 02:50:49;;;;;;;1.90;1.63;;;6.80;74.90;;;;;;5046936;28;20170;-59
2024/02/27 02:53:14;;;;;;;2.07;1.87;;;6.80;75.60;;;;;;5045519;28;20577;-61
2024/02/27 02:55:42;;;;;;;1.90;1.63;;;6.80;75.20;;;;;;5042622;28;20191;-60
2024/02/27 02:58:08;;;;;;;1.87;1.70;;;6.80;75.20;;;;;;5052538;28;20207;-61
2024/02/27 03:00:34;;;;;;;1.80;1.60;;;6.80;75.10;;;;;;5045253;28;20470;-60
2024/02/27 03:03:00;;;;;;;2.40;1.70;;;6.80;75.20;;;;;;5046677;28;20810;-60
2024/02/27 03:05:27;;;;;;;1.70;1.50;;;6.90;75.30;;;;;;5037566;28;20182;-60
2024/02/27 03:07:53;;;;;;;1.50;1.40;;;6.90;75.50;;;;;;5044103;28;20218;-60
2024/02/27 03:10:19;;;;;;;1.50;1.40;;;6.90;75.60;;;;;;5047463;28;20420;-60
2024/02/27 03:12:45;;;;;;;1.50;1.40;;;6.90;75.50;;;;;;5051574;28;20803;-59
2024/02/27 03:15:10;;;;;;;1.57;1.43;;;6.90;75.60;;;;;;5045073;28;20202;-59
2024/02/27 03:17:36;;;;;;;1.80;1.40;;;6.80;75.70;;;;;;5042789;28;20975;-61
2024/02/27 03:20:05;;;;;;;1.33;1.23;;;6.90;75.90;;;;;;5027757;28;20303;-60
2024/02/27 03:22:34;;;;;;;2.20;1.60;;;6.90;76.30;;;;;;5046179;28;20265;-60
2024/02/27 03:25:04;;;;;;;3.37;1.87;;;6.90;76.60;;;;;;5044863;28;21030;-61
2024/02/27 03:27:30;;;;;;;1.50;1.40;;;6.90;76.50;;;;;;5046735;28;20535;-60
2024/02/27 03:29:57;;;;;;;1.57;1.43;;;6.90;76.40;;;;;;5047335;28;20935;-60
2024/02/27 03:32:23;;;;;;;1.93;1.40;;;6.90;76.50;;;;;;5047843;28;20496;-60
2024/02/27 03:34:48;;;;;;;2.20;1.43;;;6.90;76.60;;;;;;5027426;28;20453;-59
2024/02/27 03:37:17;;;;;;;1.43;1.33;;;6.90;76.60;;;;;;5048851;28;20210;-60
2024/02/27 03:39:43;;;;;;;1.40;1.30;;;6.90;76.80;;;;;;5055345;28;20206;-60
2024/02/27 03:42:09;;;;;;;1.40;1.27;;;6.90;76.90;;;;;;5049231;28;20849;-59
2024/02/27 03:44:35;;;;;;;1.53;1.40;;;6.90;76.80;;;;;;5041716;28;20429;-60
2024/02/27 03:47:00;;;;;;;1.63;1.53;;;6.90;77.00;;;;;;5048204;28;20465;-60
2024/02/27 03:49:26;;;;;;;1.70;1.60;;;6.90;77.30;;;;;;5041581;28;20198;-59
2024/02/27 03:51:53;;;;;;;1.30;1.20;;;6.90;77.20;;;;;;5050384;28;20262;-59
2024/02/27 03:54:19;;;;;;;1.63;1.53;;;6.90;77.20;;;;;;5047858;28;20186;-59
2024/02/27 03:56:44;;;;;;;1.40;1.30;;;6.90;77.20;;;;;;5049264;28;20904;-60
2024/02/27 03:59:11;;;;;;;4.93;1.60;;;6.90;77.10;;;;;;5048212;28;20235;-59
2024/02/27 04:01:36;;;;;;;5.80;1.40;;;6.90;77.00;;;;;;5048485;28;20167;-59
2024/02/27 04:04:02;;;;;;;4.10;1.40;;;6.90;76.60;;;;;;5044880;28;20518;-60
2024/02/27 04:06:28;;;;;;;3.03;1.77;;;6.90;75.20;;;;;;5048591;28;20195;-59
2024/02/27 04:08:54;;;;;;;1.43;1.33;;;7.00;74.50;;;;;;5029646;28;20457;-60
2024/02/27 04:11:19;;;;;;;2.57;1.33;;;7.00;74.20;;;;;;5047728;28;20168;-60
2024/02/27 04:13:45;;;;;;;2.40;1.73;;;7.00;73.70;;;;;;5054633;28;20210;-59
2024/02/27 04:16:11;;;;;;;2.17;1.47;;;7.00;73.20;;;;;;5050894;28;20221;-60
2024/02/27 04:18:36;;;;;;;1.60;1.50;;;7.00;73.00;;;;;;5049176;28;20203;-60
2024/02/27 04:21:02;;;;;;;1.50;1.40;;;7.00;72.50;;;;;;5047374;28;20727;-60
2024/02/27 04:23:28;;;;;;;2.93;1.33;;;7.00;72.40;;;;;;5043546;28;20217;-60
2024/02/27 04:25:55;;;;;;;1.77;1.30;;;7.00;72.20;;;;;;5049431;28;21007;-60
2024/02/27 04:28:20;;;;;;;2.90;1.63;;;7.00;72.40;;;;;;5057541;28;20179;-59
2024/02/27 04:30:46;;;;;;;2.00;1.70;;;7.10;72.20;;;;;;5049548;28;21058;-59
2024/02/27 04:33:11;;;;;;;1.40;1.30;;;7.10;71.80;;;;;;5051561;28;20187;-59
2024/02/27 04:35:37;;;;;;;1.47;1.37;;;7.00;71.60;;;;;;5024269;28;20596;-59
2024/02/27 04:38:03;;;;;;;3.03;1.33;;;7.00;71.10;;;;;;5047130;28;20203;-60
2024/02/27 04:40:28;;;;;;;2.23;1.40;;;7.00;70.40;;;;;;5045197;28;20261;-60
2024/02/27 04:42:54;;;;;;;1.90;1.30;;;7.00;70.10;;;;;;5048879;28;20740;-59
2024/02/27 04:45:19;;;;;;;1.40;1.30;;;7.10;69.70;;;;;;5046444;28;20195;-60
2024/02/27 04:47:45;;;;;;;1.83;1.50;;;7.10;69.10;;;;;;5045948;28;20206;-60
2024/02/27 04:50:11;;;;;;;2.30;1.60;;;7.10;68.80;;;;;;5043868;28;20171;-60
2024/02/27 04:52:36;;;;;;;1.90;1.77;;;7.10;68.20;;;;;;5029445;28;20600;-60
2024/02/27 04:55:02;;;;;;;1.60;1.33;;;7.10;67.90;;;;;;5047151;28;20183;-60
2024/02/27 04:57:28;;;;;;;1.33;1.23;;;7.10;67.50;;;;;;5042073;28;20206;-59
2024/02/27 04:59:53;;;;;;;1.70;1.60;;;7.10;67.20;;;;;;5047436;28;20202;-59
2024/02/27 05:02:22;;;;;;;3.43;1.40;;;7.10;68.00;;;;;;5045514;28;20232;-61
2024/02/27 05:04:47;;;;;;;6.90;1.43;;;7.20;67.70;;;;;;5046585;28;20612;-60
2024/02/27 05:07:13;;;;;;;1.60;1.50;;;7.20;67.00;;;;;;5044963;28;20453;-60
2024/02/27 05:09:38;;;;;;;1.80;1.27;;;7.20;66.40;;;;;;5048898;28;20178;-60
2024/02/27 05:12:04;;;;;;;1.60;1.30;;;7.20;66.80;;;;;;5044351;28;20191;-60
2024/02/27 05:14:30;;;;;;;1.67;1.50;;;7.20;66.70;;;;;;5048277;28;20187;-60
2024/02/27 05:16:55;;;;;;;1.70;1.23;;;7.20;67.00;;;;;;5048743;28;20183;-60
2024/02/27 05:19:21;;;;;;;1.53;1.30;;;7.10;67.30;;;;;;5047836;28;20806;-61
2024/02/27 05:21:46;;;;;;;1.40;1.20;;;7.10;67.70;;;;;;5048281;28;20174;-60
2024/02/27 05:24:12;;;;;;;2.40;1.70;;;7.10;67.90;;;;;;5044311;28;20179;-60
2024/02/27 05:26:38;;;;;;;2.00;1.30;;;7.10;68.20;;;;;;5031477;28;20190;-62
2024/02/27 05:29:03;;;;;;;1.20;1.10;;;7.10;68.50;;;;;;5044359;28;20553;-61
2024/02/27 05:31:30;;;;;;;1.10;1.10;;;7.10;68.20;;;;;;5034487;28;20187;-60
2024/02/27 05:33:59;;;;;;;3.00;2.30;;;7.00;67.90;;;;;;5037660;28;20187;-61
2024/02/27 05:36:26;;;;;;;2.00;1.70;;;7.00;67.50;;;;;;5039188;28;20433;-59
2024/02/27 05:38:55;;;;;;;1.03;1.03;;;7.00;67.40;;;;;;5045451;28;20426;-60
2024/02/27 05:41:22;;;;;;;1.23;1.20;;;7.00;67.00;;;;;;5043601;28;20429;-60
2024/02/27 05:43:47;;;;;;;1.47;1.17;;;7.00;66.70;;;;;;5029498;28;21116;-60
2024/02/27 05:46:14;;;;;;;1.10;1.00;;;7.00;66.50;;;;;;5039041;28;20433;-59
2024/02/27 05:48:41;;;;;;;2.20;1.10;;;7.00;66.10;;;;;;5046259;28;20565;-59
2024/02/27 05:51:08;;;;;;;1.27;1.17;;;7.00;65.80;;;;;;5045121;28;20934;-59
2024/02/27 05:53:34;;;;;;;3.93;1.30;;;7.10;65.70;;;;;;5049451;28;20493;-60
2024/02/27 05:56:00;;;;;;;2.90;1.70;;;7.10;65.60;;;;;;5046301;28;20890;-59
2024/02/27 05:58:26;;;;;;;2.10;1.60;;;7.10;65.50;;;;;;5042533;28;20198;-60
2024/02/27 06:00:52;;;;;;;1.60;1.50;;;7.00;65.40;;;;;;5047080;28;20805;-59
2024/02/27 06:03:18;;;;;;;2.20;1.80;;;7.00;64.70;;;;;;5026641;28;20425;-59
2024/02/27 06:05:45;;;;;;;5.90;1.77;;;7.00;64.20;;;;;;5049847;28;20806;-60
2024/02/27 06:08:11;;;;;;;1.53;1.43;;;7.00;63.70;;;;;;5043841;28;20983;-61
2024/02/27 06:10:36;;;;;;;1.50;1.40;;;7.00;63.20;;;;;;5047188;28;20444;-60
2024/02/27 06:13:03;;;;;;;1.90;1.50;;;7.00;63.10;;;;;;5048598;28;20573;-60
2024/02/27 06:15:28;;;;;;;1.60;1.50;;;7.00;63.00;;;;;;5042081;28;20443;-60
2024/02/27 06:17:54;;;;;;;1.40;1.30;;;7.00;63.00;;;;;;5052272;28;20471;-60
2024/02/27 06:23:04;;;;;;;1.67;1.57;;;7.00;63.10;;;;;;5043073;28;20584;-60
2024/02/27 06:25:29;;;;;;;1.87;1.70;;;7.00;63.20;;;;;;5043804;28;20917;-61
2024/02/27 06:27:55;;;;;;;2.27;1.80;;;6.90;63.20;;;;;;5032817;28;20301;-61
2024/02/27 06:30:21;;;;;;;3.20;2.00;;;6.90;63.50;;;;;;5047210;28;20690;-60
2024/02/27 06:32:46;;;;;;;1.83;1.73;;;6.90;63.80;;;;;;5047388;28;20182;-59
2024/02/27 06:35:12;;;;;;;1.63;1.40;;;6.90;64.00;;;;;;5046722;28;20560;-62
2024/02/27 06:37:39;;;;;;;7.33;2.40;;;6.90;64.20;;;;;;5045168;28;20235;-61
2024/02/27 06:40:05;;;;;;;2.03;1.83;;;6.90;64.60;;;;;;5044252;28;20226;-62
2024/02/27 06:42:36;;;;;;;2.70;1.53;;;6.80;64.70;;;;;;5049831;28;20977;-60
2024/02/27 06:45:06;;;;;;;4.00;1.60;;;6.80;65.00;;;;;;5046718;28;20432;-60
2024/02/27 06:47:31;;;;;;;6.00;1.80;;;6.80;65.30;;;;;;5047216;28;20905;-60
2024/02/27 06:49:58;;;;;;;5.90;2.00;;;6.80;65.80;;;;;;5055484;28;20424;-60
2024/02/27 06:52:27;;;;;;;2.70;1.60;;;6.70;66.00;;;;;;5048505;28;20167;-60
2024/02/27 06:54:53;;;;;;;1.67;1.50;;;6.70;66.40;;;;;;5046425;28;20425;-60
2024/02/27 06:57:18;;;;;;;1.53;1.20;;;6.70;66.80;;;;;;5049353;28;20441;-60
2024/02/27 06:59:44;;;;;;;3.83;1.37;;;6.70;67.30;;;;;;5050492;28;20245;-61
2024/02/27 07:02:10;;;;;;;2.37;1.40;;;6.70;67.50;;;;;;5049434;28;20171;-59
2024/02/27 07:04:36;;;;;;;1.60;1.50;;;6.70;67.90;;;;;;5045713;28;20171;-59
2024/02/27 07:07:03;;;;;;;2.33;1.53;;;6.70;68.50;;;;;;5047876;28;20441;-60
2024/02/27 07:09:30;;;;;;;1.47;1.37;;;6.70;68.80;;;;;;5047249;28;20180;-60
2024/02/27 07:11:56;;;;;;;1.70;1.60;;;6.70;69.30;;;;;;5046184;28;20932;-59
2024/02/27 07:14:22;;;;;;;2.87;1.90;;;6.70;69.70;;;;;;5051426;28;20425;-59
2024/02/27 07:16:47;;;;;;;1.30;1.20;;;6.70;70.30;;;;;;5049939;28;20416;-60
2024/02/27 07:19:13;;;;;;;2.20;1.77;;;6.70;71.30;;;;;;5047050;28;20917;-59
2024/02/27 07:21:39;;;;;;;1.93;1.63;;;6.70;71.90;;;;;;5050854;28;20179;-59
2024/02/27 07:24:06;;;;;;;1.67;1.57;;;6.70;73.40;;;;;;5055906;28;20467;-59
2024/02/27 07:26:31;;;;;;;1.60;1.40;;;6.70;74.40;;;;;;5048767;28;20257;-59
2024/02/27 07:28:57;;;;;;;1.43;1.33;;;6.70;74.80;;;;;;5044838;28;21133;-61
2024/02/27 07:31:22;;;;;;;1.50;1.40;;;6.80;75.50;;;;;;5047714;28;20166;-60
2024/02/27 07:33:48;;;;;;;1.30;1.20;;;6.70;75.50;;;;;;5042758;28;20187;-59
2024/02/27 07:36:14;;;;;;;2.03;1.50;;;6.70;75.80;;;;;;5041732;28;20179;-59
2024/02/27 07:38:40;;;;;;;1.53;1.43;;;6.80;76.10;;;;;;5026731;28;20226;-59
2024/02/27 07:41:05;;;;;;;1.70;1.60;;;6.80;77.50;;;;;;5046190;28;20230;-61
2024/02/27 07:43:31;;;;;;;2.60;1.40;;;6.80;77.60;;;;;;5045045;28;20507;-60
2024/02/27 07:45:57;;;;;;;1.50;1.40;;;6.80;77.50;;;;;;5043605;28;20171;-60
2024/02/27 07:48:22;;;;;;;1.93;1.50;;;6.90;76.10;;;;;;5040565;28;20218;-60
2024/02/27 07:50:48;;;;;;;5.20;1.80;;;6.90;76.20;;;;;;5041488;28;20788;-60
2024/02/27 07:53:14;;;;;;;3.70;1.70;;;6.90;76.10;;;;;;5048896;28;20186;-60
2024/02/27 07:55:41;;;;;;;1.87;1.47;;;6.90;75.60;;;;;;5049559;28;20538;-60
2024/02/27 07:58:10;;;;;;;1.47;1.37;;;6.90;74.80;;;;;;5043607;28;20200;-60
2024/02/27 08:00:36;;;;;;;2.30;1.60;;;6.90;74.70;;;;;;5050581;28;20544;-60
2024/02/27 08:03:02;;;;;;;1.80;1.70;;;7.00;74.60;;;;;;5047673;28;20569;-60
2024/02/27 08:05:28;;;;;;;2.27;1.80;;;7.00;74.40;;;;;;5043676;28;20449;-60
2024/02/27 08:07:54;;;;;;;1.80;1.50;;;7.00;74.00;;;;;;5043557;28;20429;-60
2024/02/27 08:10:23;;;;;;;1.50;1.40;;;7.00;74.20;;;;;;5046905;28;20195;-60
2024/02/27 08:12:49;;;;;;;2.13;1.57;;;7.00;73.80;;;;;;5048358;28;20453;-60
2024/02/27 08:15:15;;;;;;;1.93;1.60;;;7.00;73.60;;;;;;5048280;28;20521;-61
2024/02/27 08:17:42;;;;;;;1.63;1.30;;;7.10;73.80;;;;;;5047774;28;20676;-60
2024/02/27 08:20:08;;;;;;;3.77;1.30;;;7.10;73.80;;;;;;5049246;28;21085;-60
2024/02/27 08:22:35;;;;;;;3.70;1.63;;;7.10;73.70;;;;;;5051533;28;20465;-60
2024/02/27 08:25:01;;;;;;;2.17;1.60;;;7.10;73.90;;;;;;5049131;28;20428;-60
2024/02/27 08:27:27;;;;;;;1.70;1.60;;;7.10;74.10;;;;;;5052356;28;20537;-59
2024/02/27 08:29:52;;;;;;;4.20;1.60;;;7.10;73.50;;;;;;5048156;28;20956;-61
2024/02/27 08:32:19;;;;;;;2.90;2.30;;;7.10;73.60;;;;;;5029163;28;20472;-61
2024/02/27 08:34:45;;;;;;;4.83;1.57;;;7.10;73.50;;;;;;5048344;28;20267;-61
2024/02/27 08:37:12;;;;;;;6.40;1.90;;;7.00;73.20;;;;;;5047539;28;20520;-61
2024/02/27 08:39:37;;;;;;;2.30;1.60;;;7.00;73.70;;;;;;5046884;28;20899;-60
2024/02/27 08:42:04;;;;;;;2.23;1.40;;;7.00;73.60;;;;;;5050821;28;20437;-61
2024/02/27 08:44:29;;;;;;;1.50;1.40;;;7.00;73.50;;;;;;5051730;28;20206;-60
2024/02/27 08:46:55;;;;;;;2.77;1.73;;;7.00;73.70;;;;;;5020874;28;20461;-60
2024/02/27 08:49:21;;;;;;;2.80;2.10;;;7.00;73.70;;;;;;5045413;28;20194;-60
2024/02/27 08:51:46;;;;;;;1.87;1.70;;;7.00;74.00;;;;;;5046685;28;20611;-60
2024/02/27 08:54:12;;;;;;;4.20;1.60;;;7.00;73.70;;;;;;5047922;28;20171;-60
2024/02/27 08:56:39;;;;;;;3.10;1.50;;;7.00;73.90;;;;;;5048797;28;20180;-60
2024/02/27 08:59:08;;;;;;;2.87;1.73;;;7.00;74.40;;;;;;5046052;28;20262;-60
2024/02/27 09:01:34;;;;;;;11.20;1.83;;;7.00;73.70;;;;;;5041322;28;20846;-60
2024/02/27 09:04:00;;;;;;;6.83;2.03;;;7.10;73.80;;;;;;5044481;28;20426;-59
2024/02/27 09:06:26;;;;;;;7.50;1.70;;;7.00;74.20;;;;;;5045863;28;20183;-58
2024/02/27 09:08:52;;;;;;;1.70;1.57;;;7.10;74.20;;;;;;5042973;28;20545;-59
2024/02/27 09:11:17;;;;;;;1.97;1.87;;;7.10;73.80;;;;;;5045056;28;20183;-57
2024/02/27 09:13:43;;;;;;;2.87;1.40;;;7.20;73.70;;;;;;5044574;28;20183;-59
2024/02/27 09:16:09;;;;;;;1.97;1.63;;;7.20;73.50;;;;;;5047490;28;20587;-57
2024/02/27 09:18:37;;;;;;;4.30;1.70;;;7.20;72.20;;;;;;5043964;28;20518;-59
2024/02/27 09:21:04;;;;;;;1.60;1.47;;;7.20;72.30;;;;;;5044742;28;20203;-59
2024/02/27 09:23:30;;;;;;;2.43;2.13;;;7.30;71.90;;;;;;5045175;28;21021;-59
2024/02/27 09:25:55;;;;;;;1.60;1.50;;;7.30;71.80;;;;;;5057394;28;20413;-59
2024/02/27 09:28:21;;;;;;;4.07;1.40;;;7.40;71.70;;;;;;5049038;28;20193;-59
2024/02/27 09:30:46;;;;;;;2.10;1.77;;;7.40;71.00;;;;;;5045008;28;20190;-60
2024/02/27 09:33:12;;;;;;;2.80;2.00;;;7.40;70.60;;;;;;5047420;28;20179;-60
2024/02/27 09:35:38;;;;;;;2.30;2.10;;;7.50;70.20;;;;;;5044933;28;20629;-61
2024/02/27 09:38:03;;;;;;;2.03;1.83;;;7.60;69.20;;;;;;5046386;28;20227;-59
2024/02/27 09:40:29;;;;;;;2.40;2.00;;;7.60;68.60;;;;;;5043624;28;20215;-59
2024/02/27 09:42:58;;;;;;;2.73;1.90;;;7.70;68.50;;;;;;5045854;28;20178;-59
2024/02/27 09:45:25;;;;;;;3.90;2.27;;;7.70;68.00;;;;;;5044629;28;20176;-59
2024/02/27 09:47:53;;;;;;;5.70;2.30;;;7.80;67.50;;;;;;5045873;28;20809;-59
2024/02/27 09:50:20;;;;;;;2.53;1.93;;;7.80;66.90;;;;;;5043322;28;20452;-59
2024/02/27 09:52:50;;;;;;;2.50;1.93;;;7.90;66.80;;;;;;5029498;28;20453;-60
2024/02/27 09:55:20;;;;;;;2.37;2.00;;;7.90;66.60;;;;;;5044107;28;20461;-58
2024/02/27 09:57:47;;;;;;;1.80;1.70;;;8.00;66.40;;;;;;5043906;28;20537;-60
2024/02/27 10:00:15;;;;;;;4.17;2.33;;;8.00;66.40;;;;;;5025634;28;20844;-60
2024/02/27 10:02:41;;;;;;;3.33;2.20;;;8.10;66.20;;;;;;5039262;28;20524;-59
2024/02/27 10:05:08;;;;;;;3.10;2.30;;;8.20;66.00;;;;;;5042986;28;20425;-59
2024/02/27 10:07:34;;;;;;;4.70;2.33;;;8.20;66.00;;;;;;5044028;28;20489;-60
2024/02/27 10:10:00;;;;;;;3.10;1.90;;;8.40;65.80;;;;;;5045638;28;20522;-61
2024/02/27 10:12:26;;;;;;;4.70;2.37;;;8.50;65.50;;;;;;5040667;28;20940;-59
2024/02/27 10:14:51;;;;;;;4.10;2.27;;;8.50;64.80;;;;;;5047484;28;20436;-59
2024/02/27 10:17:18;;;;;;;4.33;2.10;;;8.50;64.10;;;;;;5041678;28;20907;-59
2024/02/27 10:19:43;;;;;;;2.33;2.13;;;8.50;63.60;;;;;;5048117;28;20895;-60
2024/02/27 10:22:10;;;;;;;6.23;2.47;;;8.50;63.00;;;;;;5042779;28;20497;-60
2024/02/27 10:24:35;;;;;;;1.87;1.77;;;8.60;63.10;;;;;;5044294;28;20624;-60
2024/02/27 10:27:04;;;;;;;3.40;2.00;;;8.60;62.10;;;;;;5046108;28;20437;-60
2024/02/27 10:29:30;;;;;;;2.83;2.17;;;8.60;61.90;;;;;;5044771;28;21507;-59
2024/02/27 10:31:56;;;;;;;3.63;1.93;;;8.60;61.90;;;;;;5042262;28;20426;-60
2024/02/27 10:34:26;;;;;;;3.97;2.10;;;8.60;61.40;;;;;;5045088;28;20440;-60
2024/02/27 10:37:05;;;;;;;3.53;2.13;;;8.60;61.40;;;;;;5042936;28;20191;-61
2024/02/27 10:39:32;;;;;;;5.90;2.10;;;8.70;61.50;;;;;;5041672;28;20469;-59
2024/02/27 10:41:58;;;;;;;3.23;1.67;;;8.70;61.10;;;;;;5041788;28;20426;-60
2024/02/27 10:44:26;;;;;;;2.50;1.90;;;8.80;60.60;;;;;;5046383;28;20425;-60
2024/02/27 10:46:55;;;;;;;4.80;2.37;;;8.80;60.10;;;;;;5042340;28;20425;-60
2024/02/27 10:49:20;;;;;;;2.90;2.03;;;8.90;59.70;;;;;;5044903;28;20446;-60
2024/02/27 10:51:47;;;;;;;3.50;1.70;;;8.90;59.30;;;;;;5045694;28;20445;-60
2024/02/27 10:54:18;;;;;;;2.83;2.10;;;9.00;59.10;;;;;;5042415;28;20183;-61
2024/02/27 10:56:46;;;;;;;2.63;2.40;;;9.00;59.10;;;;;;5042742;28;20438;-60
2024/02/27 10:59:11;;;;;;;2.30;2.10;;;9.10;58.90;;;;;;5038799;28;20557;-59
2024/02/27 11:01:40;;;;;;;4.90;2.57;;;9.20;58.80;;;;;;5039612;28;20525;-60
2024/02/27 11:04:08;;;;;;;5.80;2.07;;;9.20;58.60;;;;;;5044200;28;20180;-59
2024/02/27 11:06:37;;;;;;;6.90;2.90;;;9.30;58.90;;;;;;5041061;28;20440;-59
2024/02/27 11:09:07;;;;;;;4.27;2.60;;;9.30;58.00;;;;;;5044743;28;20430;-60
2024/02/27 11:11:35;;;;;;;6.00;2.87;;;9.40;57.90;;;;;;5041433;28;20422;-59
2024/02/27 11:14:06;;;;;;;2.73;2.10;;;9.40;57.80;;;;;;5042214;28;20439;-59
2024/02/27 11:16:32;;;;;;;4.53;2.60;;;9.40;57.80;;;;;;5041222;28;20432;-59
2024/02/27 11:19:11;;;;;;;6.33;2.60;;;9.50;57.60;;;;;;5045291;28;20469;-59
2024/02/27 11:21:38;;;;;;;3.77;2.50;;;9.50;57.20;;;;;;5043436;28;20429;-59
2024/02/27 11:24:04;;;;;;;8.53;2.60;;;9.50;57.00;;;;;;5043041;28;20469;-61
2024/02/27 11:26:31;;;;;;;11.03;2.60;;;9.40;57.00;;;;;;5044262;28;20445;-60
2024/02/27 11:28:57;;;;;;;3.30;2.30;;;9.40;57.00;;;;;;5041082;28;20249;-60
2024/02/27 11:31:24;;;;;;;8.27;2.90;;;9.40;57.10;;;;;;5042298;28;20976;-60
2024/02/27 11:33:52;;;;;;;3.33;2.57;;;9.40;57.00;;;;;;5045011;28;20420;-61
2024/02/27 11:36:18;;;;;;;8.53;2.90;;;9.40;57.20;;;;;;5045417;28;20437;-60
2024/02/27 11:38:46;;;;;;;3.80;3.03;;;9.40;56.80;;;;;;5033020;28;20495;-60
2024/02/27 11:41:17;;;;;;;6.83;2.80;;;9.40;56.70;;;;;;5043770;28;20215;-60
2024/02/27 11:43:53;;;;;;;5.30;3.27;;;9.50;56.90;;;;;;5042793;28;20499;-60
2024/02/27 11:46:30;;;;;;;7.60;4.30;;;9.50;56.90;;;;;;5044860;28;20422;-60
2024/02/27 11:49:00;;;;;;;9.30;4.20;;;9.50;57.10;;;;;;5042597;28;20516;-59
2024/02/27 11:51:30;;;;;;;7.97;3.60;;;9.60;57.40;;;;;;5043153;28;20441;-61
2024/02/27 11:53:56;;;;;;;6.93;4.03;;;9.70;57.60;;;;;;5047989;28;20430;-61
2024/02/27 11:56:23;;;;;;;6.20;3.20;;;9.80;58.30;;;;;;5050057;28;20432;-60
2024/02/27 11:58:51;;;;;;;8.70;4.87;;;9.80;57.50;;;;;;5047415;28;20230;-62
2024/02/27 12:01:17;;;;;;;7.73;4.27;;;9.90;57.50;;;;;;5044730;28;20477;-60
2024/02/27 12:03:47;;;;;;;6.87;3.90;;;10.00;56.50;;;;;;5046489;28;20450;-60
2024/02/27 12:06:12;;;;;;;6.40;4.37;;;10.10;56.50;;;;;;5043728;28;20190;-60
2024/02/27 12:08:49;;;;;;;7.00;3.73;;;10.20;56.30;;;;;;5049467;28;20445;-60
2024/02/27 12:11:16;;;;;;;7.97;4.20;;;10.40;56.50;;;;;;5047678;28;20186;-60
2024/02/27 12:13:50;;;;;;;5.53;3.77;;;10.50;56.20;;;;;;5043892;28;20534;-60
2024/02/27 12:16:25;;;;;;;9.10;5.07;;;10.60;56.00;;;;;;5048572;28;20410;-61
2024/02/27 12:18:56;;;;;;;8.00;5.10;;;10.60;55.90;;;;;;5045104;28;20441;-61
2024/02/27 12:21:33;;;;;;;18.40;4.60;;;10.60;55.90;;;;;;5028852;28;20967;-61
2024/02/27 12:24:15;;;;;;;10.00;4.90;;;10.50;55.70;;;;;;5043853;28;21002;-60
2024/02/27 12:26:42;;;;;;;8.90;5.10;;;10.50;55.90;;;;;;5048320;28;20770;-60
2024/02/27 12:29:09;;;;;;;8.73;5.30;;;10.40;56.30;;;;;;5046767;28;20433;-60
2024/02/27 12:31:36;;;;;;;9.30;5.67;;;10.30;56.60;;;;;;5050676;28;20501;-60
2024/02/27 12:34:02;;;;;;;8.00;5.40;;;10.30;57.60;;;;;;5054249;28;20413;-61
2024/02/27 12:36:29;;;;;;;10.90;5.93;;;10.20;57.20;;;;;;5041830;28;20594;-61
2024/02/27 12:38:54;;;;;;;9.20;5.80;;;10.20;57.40;;;;;;5043991;28;20494;-60
2024/02/27 12:41:24;;;;;;;12.20;6.60;;;10.10;57.40;;;;;;5051279;28;20508;-61
2024/02/27 12:43:49;;;;;;;12.10;6.20;;;10.10;57.70;;;;;;5038152;28;20183;-61
2024/02/27 12:46:16;;;;;;;11.50;6.10;;;10.10;58.00;;;;;;5043404;28;20444;-60
2024/02/27 12:48:43;;;;;;;13.13;6.50;;;10.00;58.30;;;;;;5039058;28;20214;-60
2024/02/27 12:51:10;;;;;;;10.83;6.53;;;10.00;58.40;;;;;;5047672;28;21096;-59
2024/02/27 12:53:36;;;;;;;10.57;6.50;;;10.00;58.40;;;;;;5045432;28;20472;-62